sim
Sign-in with your pilot id or email,
or register
Callsign
Passwort

Schedule Details

Flight Number: RYR5797 (2)
Departure: Frankfurt Hahn Airport (EDFH) at 17:25
Arrival: Thessaloniki International Airport (LGTS) at 20:00
Route: Ryanair Passenger Schedule. Enter filed route here before submitting Pirep.

Weather Information
Getting current METAR information for EDFH 252250Z 25005KT CAVOK 08/06 Q1010
Getting current METAR information for LGTS 252250Z VRB02KT CAVOK 15/12 Q1020 NOSIG

Schedule Frequency

Route Map